Saturday, May 28, 2016, 2:01 PM EDT

KEZF, Fredericksburg, Shannon Airport

Location: Fredericksburg, VA, United States Lat: 38.267
Local Time: 2:01 PM EDT (18:01 GMT) Lon: -77.45
Time Zone: US/Eastern Elev: 85 ft

Show me the last for .
Show Decoded

2016-05-28 13:35 METAR KEZF 281735Z AUTO 16007KT 10SM SCT050 SCT065 SCT080 31/19 A3015 RMK AO2
                 T03090190 =
2016-05-28 13:15 METAR KEZF 281715Z AUTO 17008KT 10SM CLR 31/19 A3014 RMK AO2 T03110193 =
2016-05-28 12:55 METAR KEZF 281655Z AUTO 21008KT 10SM CLR 31/20 A3015 RMK AO2 T03060199 =
2016-05-28 12:35 METAR KEZF 281635Z AUTO 20006KT 10SM CLR 30/20 A3015 RMK AO2 T03010198 =
2016-05-28 12:15 METAR KEZF 281615Z AUTO 16006KT 10SM CLR 30/20 A3016 RMK AO2 T03000199 =
2016-05-28 11:55 METAR KEZF 281555Z AUTO 20005KT 10SM CLR 30/20 A3016 RMK AO2 T02950198 =
2016-05-28 11:35 METAR KEZF 281535Z AUTO 17005KT 10SM CLR 29/20 A3017 RMK AO2 T02910200 =
2016-05-28 11:15 METAR KEZF 281515Z AUTO 18005KT 10SM CLR 28/20 A3017 RMK AO2 T02840198 =
2016-05-28 10:55 METAR KEZF 281455Z AUTO 00000KT 10SM CLR 28/20 A3016 RMK AO2 T02790197 =
2016-05-28 10:35 METAR KEZF 281435Z AUTO 16004KT 10SM CLR 27/19 A3016 RMK AO2 T02730194 =
2016-05-28 10:15 METAR KEZF 281415Z AUTO 00000KT 10SM CLR 27/19 A3016 RMK AO2 T02650189 =
2016-05-28 09:55 METAR KEZF 281355Z AUTO 20004KT 10SM CLR 26/19 A3016 RMK AO2 T02570186 =
2016-05-28 09:35 METAR KEZF 281335Z AUTO 23003KT 10SM CLR 25/18 A3017 RMK AO2 T02510184 =
2016-05-28 09:15 METAR KEZF 281315Z AUTO 22004KT 10SM CLR 24/18 A3017 RMK AO2 T02440180 =
2016-05-28 08:55 METAR KEZF 281255Z AUTO 22005KT 10SM CLR 24/18 A3016 RMK AO2 T02360176 =
2016-05-28 08:35 METAR KEZF 281235Z AUTO 21004KT 10SM CLR 23/17 A3015 RMK AO2 T02300173 =
2016-05-28 08:15 METAR KEZF 281215Z AUTO 19005KT 10SM CLR 23/17 A3014 RMK AO2 T02250171 =
2016-05-28 07:55 METAR KEZF 281155Z AUTO 00000KT 10SM CLR 22/17 A3014 RMK AO2 T02180169 10232
                 20198 =
2016-05-28 07:35 METAR KEZF 281135Z AUTO 20004KT 10SM CLR 21/17 A3014 RMK AO2 T02140167 =
2016-05-28 07:15 METAR KEZF 281115Z AUTO 21003KT 10SM CLR 21/17 A3014 RMK AO2 T02090167 =
2016-05-28 06:55 METAR KEZF 281055Z AUTO 21003KT 10SM CLR 21/17 A3013 RMK AO2 T02050165 =
2016-05-28 06:35 METAR KEZF 281035Z AUTO 00000KT 10SM CLR 20/17 A3013 RMK AO2 T02000165 =
2016-05-28 06:15 METAR KEZF 281015Z AUTO 00000KT 10SM CLR 20/16 A3012 RMK AO2 T02000163 =
2016-05-28 05:55 METAR KEZF 280955Z AUTO 00000KT 10SM CLR 20/16 A3012 RMK AO2 T01990163 =
2016-05-28 05:35 METAR KEZF 280935Z AUTO 18003KT 10SM CLR 20/16 A3012 RMK AO2 T02000163 =
2016-05-28 05:15 METAR KEZF 280915Z AUTO 18004KT 10SM CLR 20/16 A3012 RMK AO2 T02010163 =
2016-05-28 04:55 METAR KEZF 280855Z AUTO 18003KT 10SM CLR 20/16 A3012 RMK AO2 T02010164 =
2016-05-28 04:35 METAR KEZF 280835Z AUTO 17004KT 10SM CLR 21/17 A3011 RMK AO2 T02070165 =
2016-05-28 04:15 METAR KEZF 280815Z AUTO 17004KT 10SM CLR 21/17 A3011 RMK AO2 T02080165 =
2016-05-28 03:55 METAR KEZF 280755Z AUTO 17003KT 10SM CLR 21/17 A3011 RMK AO2 T02140166 =
2016-05-28 03:35 METAR KEZF 280735Z AUTO 00000KT 10SM CLR 22/17 A3010 RMK AO2 T02180167 =
2016-05-28 03:15 METAR KEZF 280715Z AUTO 21004KT 10SM CLR 22/17 A3010 RMK AO2 T02210169 =
2016-05-28 02:55 METAR KEZF 280655Z AUTO 19004KT 10SM CLR 23/17 A3009 RMK AO2 T02250171 =
2016-05-28 02:35 METAR KEZF 280635Z AUTO 19006KT 10SM CLR 23/17 A3009 RMK AO2 T02270174 =
2016-05-28 02:15 METAR KEZF 280615Z AUTO 20008KT 10SM CLR 23/18 A3009 RMK AO2 T02300177 =
2016-05-28 01:55 METAR KEZF 280555Z AUTO 20007KT 10SM CLR 23/18 A3010 RMK AO2 T02320180 10288
                 20232 403290204 =
2016-05-28 01:35 METAR KEZF 280535Z AUTO 19008KT 10SM CLR 24/18 A3010 RMK AO2 T02350184 =
2016-05-28 01:15 METAR KEZF 280515Z AUTO 20009KT 10SM CLR 24/19 A3010 RMK AO2 T02390187 =
2016-05-28 00:55 METAR KEZF 280455Z AUTO 19008KT 10SM CLR 24/19 A3010 RMK AO2 T02400193 =
2016-05-28 00:35 METAR KEZF 280435Z AUTO 18007KT 10SM CLR 24/20 A3010 RMK AO2 T02400197 =
2016-05-28 00:15 METAR KEZF 280415Z AUTO 18008KT 10SM CLR 24/20 A3010 RMK AO2 T02400199 =
2016-05-27 23:55 METAR KEZF 280355Z AUTO 18007KT 10SM CLR 24/20 A3010 RMK AO2 T02400198 =
2016-05-27 23:35 METAR KEZF 280335Z AUTO 19008KT 10SM CLR 26/20 A3009 RMK AO2 T02550198 =
2016-05-27 23:15 METAR KEZF 280315Z AUTO 19007KT 10SM CLR 25/20 A3009 RMK AO2 T02520200 =
2016-05-27 22:55 METAR KEZF 280255Z AUTO 19006KT 10SM CLR 25/20 A3009 RMK AO2 T02510200 =
2016-05-27 22:35 METAR KEZF 280235Z AUTO 18007KT 10SM CLR 25/20 A3008 RMK AO2 T02500201 =
2016-05-27 22:15 METAR KEZF 280215Z AUTO 18006KT 10SM CLR 25/20 A3008 RMK AO2 T02490202 =
2016-05-27 21:55 METAR KEZF 280155Z AUTO 17005KT 10SM CLR 25/21 A3007 RMK AO2 T02510205 =
2016-05-27 21:35 METAR KEZF 280135Z AUTO 17006KT 10SM CLR 25/21 A3007 RMK AO2 T02510205 =
2016-05-27 21:15 METAR KEZF 280115Z AUTO 17006KT 10SM CLR 26/21 A3006 RMK AO2 T02570205 =
2016-05-27 20:55 METAR KEZF 280055Z AUTO 17005KT 10SM CLR 26/21 A3006 RMK AO2 T02590205 =
2016-05-27 20:35 METAR KEZF 280035Z AUTO 19006KT 10SM CLR 27/21 A3005 RMK AO2 T02700209 =
2016-05-27 20:15 METAR KEZF 280015Z AUTO 19005KT 10SM CLR 28/21 A3005 RMK AO2 T02780208 =
2016-05-27 19:55 METAR KEZF 272355Z AUTO 18006KT 10SM CLR 29/21 A3004 RMK AO2 T02890205 10329
                 20289 =
2016-05-27 19:35 METAR KEZF 272335Z AUTO 19005KT 10SM CLR 30/21 A3004 RMK AO2 T02950205 =
2016-05-27 19:15 METAR KEZF 272315Z AUTO 19006KT 10SM CLR 30/20 A3003 RMK AO2 T03020204 =
2016-05-27 18:55 METAR KEZF 272255Z AUTO 18005KT 10SM CLR 31/20 A3003 RMK AO2 T03060204 =
2016-05-27 18:35 METAR KEZF 272235Z AUTO 19007KT 10SM CLR 31/20 A3002 RMK AO2 T03120201 =
2016-05-27 18:15 METAR KEZF 272215Z AUTO 18009KT 10SM CLR 32/20 A3002 RMK AO2 T03150203 =
2016-05-27 17:55 METAR KEZF 272155Z AUTO 20008KT 10SM SCT065 SCT120 32/20 A3002 RMK AO2 T03170197
                 =
2016-05-27 17:35 METAR KEZF 272135Z AUTO 18010KT 10SM SCT055 SCT065 32/20 A3002 RMK AO2 T03180200
                 =
2016-05-27 17:15 METAR KEZF 272115Z AUTO 17007KT 10SM SCT055 SCT065 SCT080 31/20 A3003 RMK AO2
                 T03140198 =
2016-05-27 16:55 METAR KEZF 272055Z AUTO 20009KT 10SM SCT055 SCT065 SCT085 32/20 A3003 RMK AO2
                 T03200200 =
2016-05-27 16:35 METAR KEZF 272035Z AUTO 19008G15KT 10SM CLR 32/20 A3004 RMK AO2 T03220199 =
2016-05-27 16:15 METAR KEZF 272015Z AUTO 19010KT 10SM SCT060 SCT080 SCT090 32/20 A3004 RMK AO2
                 T03220199 =
2016-05-27 15:55 METAR KEZF 271955Z AUTO 17008KT 10SM SCT050 SCT080 SCT090 33/20 A3004 RMK AO2
                 T03280202 =
2016-05-27 15:35 METAR KEZF 271935Z AUTO 20006KT 10SM SCT050 SCT075 SCT090 32/21 A3004 RMK AO2
                 T03170206 =
2016-05-27 15:15 METAR KEZF 271915Z AUTO 19008G14KT 160V220 10SM SCT050 SCT065 SCT075 32/21 A3004
                 RMK AO2 T03200208 =
2016-05-27 14:55 METAR KEZF 271855Z AUTO 20009KT 10SM SCT050 SCT055 SCT075 32/20 A3005 RMK AO2
                 T03160204 =
2016-05-27 14:35 METAR KEZF 271835Z AUTO 20006G14KT 10SM SCT050 SCT075 SCT090 32/20 A3005 RMK AO2
                 T03200202 =
2016-05-27 14:15 METAR KEZF 271815Z AUTO 18006KT 10SM SCT085 32/20 A3005 RMK AO2 T03210202 =

Support USWX by starting your Amazon purchase here.